createdAt,value
2018-01-13T00:00:00.162Z,6.20
2018-01-13T00:02:29.080Z,6.20
2018-01-13T00:04:58.621Z,6.20
2018-01-13T00:07:26.883Z,6.20
2018-01-13T00:09:55.192Z,6.20
2018-01-13T00:12:23.443Z,6.20
2018-01-13T00:14:50.972Z,6.20
2018-01-13T00:17:19.248Z,6.20
2018-01-13T00:19:47.526Z,6.20
2018-01-13T00:22:15.781Z,6.20
2018-01-13T00:24:54.485Z,6.20
2018-01-13T00:27:22.737Z,6.20
2018-01-13T00:29:50.998Z,6.20
2018-01-13T00:32:19.277Z,6.20
2018-01-13T00:34:47.525Z,6.10
2018-01-13T00:37:15.809Z,6.10
2018-01-13T00:39:51.128Z,6.10
2018-01-13T00:42:19.438Z,6.10
2018-01-13T00:44:47.689Z,6.10
2018-01-13T00:47:17.936Z,6.10
2018-01-13T00:49:46.185Z,6.10
2018-01-13T00:52:13.688Z,6.10
2018-01-13T00:54:41.969Z,6.10
2018-01-13T00:57:10.237Z,6.10
2018-01-13T00:59:38.518Z,6.10
2018-01-13T01:02:06.894Z,6.10
2018-01-13T01:04:35.141Z,6.10
2018-01-13T01:07:03.394Z,6.10
2018-01-13T01:09:31.670Z,6.10
2018-01-13T01:12:01.082Z,6.10
2018-01-13T01:14:30.049Z,6.10
2018-01-13T01:16:58.952Z,6.10
2018-01-13T01:19:27.208Z,6.10
2018-01-13T01:21:55.694Z,6.10
2018-01-13T01:24:23.944Z,6.10
2018-01-13T01:26:59.828Z,6.10
2018-01-13T01:29:28.889Z,6.10
2018-01-13T01:31:57.137Z,6.10
2018-01-13T01:34:25.437Z,6.00
2018-01-13T01:36:53.702Z,6.10
2018-01-13T01:39:22.986Z,6.10
2018-01-13T01:41:51.252Z,6.00
2018-01-13T01:44:19.534Z,6.00
2018-01-13T01:46:47.802Z,6.00
2018-01-13T01:49:17.037Z,6.00
2018-01-13T01:51:45.321Z,6.00
2018-01-13T01:54:13.593Z,6.00
2018-01-13T01:56:41.838Z,6.00
2018-01-13T01:59:26.914Z,6.00
2018-01-13T02:01:55.166Z,6.00
2018-01-13T02:04:23.476Z,6.00
2018-01-13T02:06:51.744Z,5.90
2018-01-13T02:09:20.938Z,5.90
2018-01-13T02:11:49.233Z,5.90
2018-01-13T02:14:17.486Z,5.90
2018-01-13T02:16:45.734Z,5.90
2018-01-13T02:19:24.218Z,5.90
2018-01-13T02:21:52.466Z,5.90
2018-01-13T02:24:20.754Z,5.80
2018-01-13T02:26:49.010Z,5.80
2018-01-13T02:29:17.292Z,5.80
2018-01-13T02:31:45.541Z,5.80
2018-01-13T02:34:13.836Z,5.80
2018-01-13T02:36:45.218Z,5.80
2018-01-13T02:39:13.514Z,5.80
2018-01-13T02:41:41.760Z,5.80
2018-01-13T02:44:10.982Z,5.80
2018-01-13T02:46:39.270Z,5.90
2018-01-13T02:49:07.549Z,6.00
2018-01-13T02:51:35.821Z,5.90
2018-01-13T02:54:07.235Z,5.80
2018-01-13T02:56:35.491Z,5.80
2018-01-13T02:59:03.795Z,5.80
2018-01-13T03:01:31.290Z,5.70
2018-01-13T03:03:59.967Z,5.60
2018-01-13T03:06:29.410Z,5.60
2018-01-13T03:08:58.067Z,5.60
2018-01-13T03:11:26.363Z,5.60
2018-01-13T03:13:54.621Z,5.50
2018-01-13T03:16:22.918Z,5.50
2018-01-13T03:18:51.170Z,5.60
2018-01-13T03:21:19.435Z,5.60
2018-01-13T03:23:47.725Z,5.60
2018-01-13T03:26:15.987Z,5.60
2018-01-13T03:28:44.265Z,5.50
2018-01-13T03:31:12.528Z,5.50
2018-01-13T03:33:40.806Z,5.60
2018-01-13T03:36:09.086Z,5.60
2018-01-13T03:38:37.346Z,5.60
2018-01-13T03:41:05.642Z,5.50
2018-01-13T03:43:33.904Z,5.50
2018-01-13T03:46:02.186Z,5.60
2018-01-13T03:48:30.442Z,5.60
2018-01-13T03:50:59.506Z,5.60
2018-01-13T03:53:28.479Z,5.60
2018-01-13T03:56:03.883Z,5.60
2018-01-13T03:58:32.139Z,5.60
2018-01-13T04:01:00.406Z,5.60
2018-01-13T04:03:29.054Z,5.50
2018-01-13T04:05:58.243Z,5.50
2018-01-13T04:08:26.502Z,5.50
2018-01-13T04:10:54.753Z,5.50
2018-01-13T04:13:23.055Z,5.50
2018-01-13T04:15:51.318Z,5.50
2018-01-13T04:18:19.570Z,5.50
2018-01-13T04:20:47.950Z,5.50
2018-01-13T04:23:21.965Z,5.50
2018-01-13T04:25:50.247Z,5.50
2018-01-13T04:28:18.507Z,5.50
2018-01-13T04:30:46.786Z,5.50
2018-01-13T04:33:15.070Z,5.60
2018-01-13T04:35:43.330Z,5.60
2018-01-13T04:38:11.626Z,5.60
2018-01-13T04:40:39.885Z,5.60
2018-01-13T04:43:09.166Z,5.60
2018-01-13T04:45:37.427Z,5.60
2018-01-13T04:48:05.686Z,5.60
2018-01-13T04:50:33.979Z,5.60
2018-01-13T04:53:02.237Z,5.60
2018-01-13T04:55:30.526Z,5.60
2018-01-13T04:57:59.602Z,5.60
2018-01-13T05:00:28.590Z,5.60
2018-01-13T05:02:56.871Z,5.60
2018-01-13T05:05:25.158Z,5.60
2018-01-13T05:07:53.414Z,5.60
2018-01-13T05:10:21.698Z,5.70
2018-01-13T05:12:49.987Z,5.70
2018-01-13T05:15:18.246Z,5.70
2018-01-13T05:17:46.511Z,5.70
2018-01-13T05:20:14.801Z,5.60
2018-01-13T05:22:43.067Z,5.70
2018-01-13T05:25:11.335Z,5.60
2018-01-13T05:27:39.630Z,5.60
2018-01-13T05:30:07.890Z,5.60
2018-01-13T05:32:36.147Z,5.60
2018-01-13T05:35:04.422Z,5.60
2018-01-13T05:37:32.722Z,5.60
2018-01-13T05:40:00.987Z,5.60
2018-01-13T05:42:29.970Z,5.60
2018-01-13T05:44:58.859Z,5.60
2018-01-13T05:47:27.118Z,5.60
2018-01-13T05:49:55.402Z,5.60
2018-01-13T05:52:23.653Z,5.60
2018-01-13T05:55:05.794Z,5.60
2018-01-13T05:57:34.050Z,5.50
2018-01-13T06:00:02.354Z,5.50
2018-01-13T06:02:29.846Z,5.50
2018-01-13T06:04:58.841Z,5.50
2018-01-13T06:07:27.122Z,5.50
2018-01-13T06:09:55.382Z,5.50
2018-01-13T06:12:23.671Z,5.50
2018-01-13T06:14:52.862Z,5.60
2018-01-13T06:17:21.154Z,5.60
2018-01-13T06:19:49.405Z,5.50
2018-01-13T06:22:17.671Z,5.50
2018-01-13T06:24:51.760Z,5.50
2018-01-13T06:27:20.386Z,5.60
2018-01-13T06:29:48.646Z,5.60
2018-01-13T06:32:16.926Z,5.50
2018-01-13T06:34:45.178Z,5.50
2018-01-13T06:37:13.466Z,5.50
2018-01-13T06:39:41.717Z,5.60
2018-01-13T06:42:10.018Z,5.60
2018-01-13T06:44:38.270Z,5.60
2018-01-13T06:47:06.527Z,5.60
2018-01-13T06:49:34.811Z,5.60
2018-01-13T06:52:03.072Z,5.60
2018-01-13T06:54:31.354Z,5.60
2018-01-13T06:57:00.094Z,5.60
2018-01-13T06:59:29.051Z,5.60
2018-01-13T07:01:58.134Z,5.60
2018-01-13T07:04:26.383Z,5.60
2018-01-13T07:06:54.682Z,5.60
2018-01-13T07:09:22.935Z,5.60
2018-01-13T07:11:51.187Z,5.60
2018-01-13T07:14:19.470Z,5.60
2018-01-13T07:16:46.990Z,5.60
2018-01-13T07:19:15.242Z,5.70
2018-01-13T07:21:43.534Z,5.60
2018-01-13T07:24:11.793Z,5.60
2018-01-13T07:26:42.734Z,5.60
2018-01-13T07:29:10.982Z,5.60
2018-01-13T07:31:39.226Z,5.60
2018-01-13T07:34:07.517Z,5.60
2018-01-13T07:36:35.774Z,5.70
2018-01-13T07:39:07.681Z,5.70
2018-01-13T07:41:35.988Z,5.70
2018-01-13T07:44:10.590Z,5.70
2018-01-13T07:46:38.873Z,5.60
2018-01-13T07:49:07.129Z,5.60
2018-01-13T07:51:35.414Z,5.60
2018-01-13T07:54:03.674Z,5.60
2018-01-13T07:56:32.945Z,5.70
2018-01-13T07:59:01.194Z,5.70
2018-01-13T08:01:30.159Z,5.70
2018-01-13T08:03:58.084Z,5.60
2018-01-13T08:06:26.344Z,5.70
2018-01-13T08:08:54.607Z,5.70
2018-01-13T08:11:22.987Z,5.70
2018-01-13T08:13:51.271Z,5.70
2018-01-13T08:16:19.522Z,5.70
2018-01-13T08:18:47.813Z,5.70
2018-01-13T08:21:16.062Z,5.80
2018-01-13T08:23:44.366Z,5.70
2018-01-13T08:26:12.622Z,5.80
2018-01-13T08:28:40.872Z,5.80
2018-01-13T08:31:09.147Z,5.80
2018-01-13T08:33:37.397Z,5.80
2018-01-13T08:36:05.686Z,5.80
2018-01-13T08:38:33.939Z,5.90
2018-01-13T08:41:02.195Z,5.90
2018-01-13T08:43:30.479Z,5.90
2018-01-13T08:45:59.350Z,5.90
2018-01-13T08:48:28.044Z,5.90
2018-01-13T08:50:56.295Z,5.90
2018-01-13T08:53:24.542Z,5.90
2018-01-13T08:55:52.826Z,5.90
2018-01-13T08:58:21.074Z,5.90
2018-01-13T09:00:49.369Z,5.90
2018-01-13T09:03:17.630Z,5.90
2018-01-13T09:05:45.883Z,5.80
2018-01-13T09:08:14.175Z,5.80
2018-01-13T09:10:42.445Z,5.80
2018-01-13T09:13:10.703Z,5.80
2018-01-13T09:15:38.978Z,5.80
2018-01-13T09:18:07.263Z,5.80
2018-01-13T09:20:34.778Z,5.80
2018-01-13T09:23:03.054Z,5.80
2018-01-13T09:25:31.302Z,5.90
2018-01-13T09:27:59.902Z,5.90
2018-01-13T09:30:29.062Z,5.90
2018-01-13T09:32:59.026Z,5.90
2018-01-13T09:35:28.483Z,5.90
2018-01-13T09:37:56.779Z,5.90
2018-01-13T09:40:25.037Z,5.90
2018-01-13T09:42:53.299Z,5.90
2018-01-13T09:45:21.601Z,5.90
2018-01-13T09:47:49.886Z,5.80
2018-01-13T09:50:18.146Z,5.80
2018-01-13T09:52:46.430Z,5.90
2018-01-13T09:55:14.686Z,5.90
2018-01-13T09:57:42.970Z,5.90
2018-01-13T10:00:11.222Z,5.90
2018-01-13T10:02:39.514Z,5.90
2018-01-13T10:05:07.767Z,5.90
2018-01-13T10:07:36.034Z,5.90
2018-01-13T10:10:04.325Z,5.90
2018-01-13T10:12:32.648Z,5.90
2018-01-13T10:15:00.931Z,5.90
2018-01-13T10:17:29.904Z,5.90
2018-01-13T10:19:58.870Z,5.90
2018-01-13T10:22:27.130Z,5.90
2018-01-13T10:24:55.378Z,5.90
2018-01-13T10:27:23.662Z,5.90
2018-01-13T10:29:51.940Z,5.90
2018-01-13T10:32:32.992Z,5.90
2018-01-13T10:35:01.262Z,5.90
2018-01-13T10:37:35.419Z,5.90
2018-01-13T10:40:03.711Z,5.90
2018-01-13T10:42:38.163Z,5.90
2018-01-13T10:45:06.446Z,5.90
2018-01-13T10:47:34.739Z,5.90
2018-01-13T10:50:02.986Z,5.90
2018-01-13T10:52:31.246Z,5.90
2018-01-13T10:54:59.745Z,5.90
2018-01-13T10:57:29.098Z,5.90
2018-01-13T10:59:58.074Z,5.90
2018-01-13T11:02:26.358Z,6.00
2018-01-13T11:04:54.621Z,6.00
2018-01-13T11:07:22.914Z,6.00
2018-01-13T11:09:51.166Z,6.00
2018-01-13T11:12:19.423Z,6.10
2018-01-13T11:14:47.718Z,6.10
2018-01-13T11:17:15.982Z,6.00
2018-01-13T11:19:50.047Z,6.00
2018-01-13T11:22:18.298Z,6.10
2018-01-13T11:24:46.558Z,6.10
2018-01-13T11:27:14.869Z,6.10
2018-01-13T11:29:43.159Z,6.10
2018-01-13T11:32:10.646Z,6.10
2018-01-13T11:34:38.907Z,6.20
2018-01-13T11:37:07.189Z,6.30
2018-01-13T11:39:35.454Z,6.40
2018-01-13T11:42:02.971Z,6.40
2018-01-13T11:44:31.239Z,6.50
2018-01-13T11:47:00.447Z,6.50
2018-01-13T11:49:29.430Z,6.50
2018-01-13T11:51:58.501Z,6.50
2018-01-13T11:54:30.245Z,6.50
2018-01-13T11:56:58.911Z,6.50
2018-01-13T11:59:27.170Z,6.50
2018-01-13T12:01:55.454Z,6.50
2018-01-13T12:04:23.706Z,6.50
2018-01-13T12:06:58.826Z,6.50
2018-01-13T12:09:27.083Z,6.50
2018-01-13T12:11:55.343Z,6.50
2018-01-13T12:14:23.634Z,6.50
2018-01-13T12:16:51.890Z,6.50
2018-01-13T12:19:23.139Z,6.60
2018-01-13T12:21:51.402Z,6.60
2018-01-13T12:24:19.694Z,6.60
2018-01-13T12:26:47.178Z,6.60
2018-01-13T12:29:15.435Z,6.50
2018-01-13T12:31:43.722Z,6.60
2018-01-13T12:34:14.630Z,6.50
2018-01-13T12:36:42.915Z,6.50
2018-01-13T12:39:11.204Z,6.50
2018-01-13T12:41:39.449Z,6.60
2018-01-13T12:44:07.735Z,6.60
2018-01-13T12:46:42.111Z,6.50
2018-01-13T12:49:10.397Z,6.50
2018-01-13T12:51:38.659Z,6.50
2018-01-13T12:54:06.946Z,6.50
2018-01-13T12:56:35.203Z,6.60
2018-01-13T12:59:03.487Z,6.50
2018-01-13T13:01:31.774Z,6.60
2018-01-13T13:04:01.206Z,6.60
2018-01-13T13:06:30.210Z,6.70
2018-01-13T13:08:58.894Z,6.70
2018-01-13T13:11:28.988Z,6.70
2018-01-13T13:13:58.385Z,6.70
2018-01-13T13:16:26.666Z,6.70
2018-01-13T13:18:54.951Z,6.70
2018-01-13T13:21:23.202Z,6.70
2018-01-13T13:23:51.506Z,6.70
2018-01-13T13:26:19.802Z,6.70
2018-01-13T13:28:54.783Z,6.70
2018-01-13T13:31:23.034Z,6.70
2018-01-13T13:33:51.295Z,6.60
2018-01-13T13:36:19.583Z,6.60
2018-01-13T13:38:58.859Z,6.60
2018-01-13T13:41:27.111Z,6.70
2018-01-13T13:43:55.394Z,6.70
2018-01-13T13:46:23.676Z,6.70
2018-01-13T13:48:51.962Z,6.70
2018-01-13T13:51:26.178Z,6.70
2018-01-13T13:53:54.467Z,6.70
2018-01-13T13:56:22.719Z,6.70
2018-01-13T13:58:51.030Z,6.80
2018-01-13T14:01:28.592Z,6.80
2018-01-13T14:03:46.834Z,6.70
2018-01-13T14:06:15.082Z,6.70
2018-01-13T14:08:43.330Z,6.70
2018-01-13T14:11:11.614Z,6.70
2018-01-13T14:13:39.866Z,6.70
2018-01-13T14:16:07.388Z,6.70
2018-01-13T14:18:35.639Z,6.60
2018-01-13T14:21:07.438Z,6.60
2018-01-13T14:23:35.727Z,6.60
2018-01-13T14:26:14.405Z,6.70
2018-01-13T14:28:42.658Z,6.70
2018-01-13T14:31:10.906Z,6.70
2018-01-13T14:33:39.209Z,6.70
2018-01-13T14:36:07.458Z,6.80
2018-01-13T14:38:35.709Z,6.70
2018-01-13T14:41:13.787Z,6.70
2018-01-13T14:43:42.046Z,6.70
2018-01-13T14:46:09.575Z,6.70
2018-01-13T14:48:37.836Z,6.70
2018-01-13T14:51:06.123Z,6.80
2018-01-13T14:53:34.398Z,6.80
2018-01-13T14:56:02.662Z,6.80
2018-01-13T14:58:30.938Z,6.80
2018-01-13T15:00:59.806Z,6.80
2018-01-13T15:03:28.934Z,6.80
2018-01-13T15:05:57.189Z,6.80
2018-01-13T15:08:25.471Z,6.90
2018-01-13T15:10:53.719Z,6.80
2018-01-13T15:13:22.020Z,6.70
2018-01-13T15:15:50.283Z,6.80
2018-01-13T15:18:18.536Z,6.70
2018-01-13T15:20:46.847Z,6.60
2018-01-13T15:23:15.098Z,6.60
2018-01-13T15:25:43.359Z,6.50
2018-01-13T15:28:11.638Z,6.40
2018-01-13T15:30:39.972Z,6.40
2018-01-13T15:33:08.207Z,6.50
2018-01-13T15:35:36.455Z,6.40
2018-01-13T15:38:04.737Z,6.40
2018-01-13T15:40:32.986Z,6.40
2018-01-13T15:43:01.278Z,6.30
2018-01-13T15:45:29.930Z,6.30
2018-01-13T15:47:59.354Z,6.30
2018-01-13T15:50:31.056Z,6.30
2018-01-13T15:53:00.205Z,6.30
2018-01-13T15:55:29.453Z,6.20
2018-01-13T15:57:57.770Z,6.20
2018-01-13T16:00:26.053Z,6.00
2018-01-13T16:02:54.310Z,5.90
2018-01-13T16:05:22.600Z,5.80
2018-01-13T16:07:54.120Z,5.80
2018-01-13T16:10:22.415Z,5.90
2018-01-13T16:13:01.887Z,5.80
2018-01-13T16:15:30.185Z,5.80
2018-01-13T16:17:58.911Z,5.80
2018-01-13T16:20:27.162Z,5.80
2018-01-13T16:23:02.082Z,5.80
2018-01-13T16:25:30.216Z,5.80
2018-01-13T16:27:59.054Z,5.90
2018-01-13T16:30:28.310Z,5.90
2018-01-13T16:32:56.574Z,5.90
2018-01-13T16:35:24.838Z,5.80
2018-01-13T16:37:53.141Z,5.80
2018-01-13T16:40:45.005Z,5.70
2018-01-13T16:43:13.294Z,5.70
2018-01-13T16:45:43.514Z,5.70
2018-01-13T16:48:11.788Z,5.70
2018-01-13T16:50:40.074Z,5.70
2018-01-13T16:53:14.032Z,5.70
2018-01-13T16:55:42.289Z,5.50
2018-01-13T16:58:11.543Z,5.40
2018-01-13T17:00:39.837Z,5.50
2018-01-13T17:03:08.106Z,5.40
2018-01-13T17:05:36.395Z,5.40
2018-01-13T17:08:05.662Z,5.40
2018-01-13T17:10:33.990Z,5.30
2018-01-13T17:13:11.511Z,5.30
2018-01-13T17:15:39.798Z,5.30
2018-01-13T17:18:08.132Z,5.30
2018-01-13T17:20:36.432Z,5.30
2018-01-13T17:23:05.670Z,5.40
2018-01-13T17:25:34.004Z,5.40
2018-01-13T17:28:03.281Z,5.50
2018-01-13T17:30:31.579Z,5.40
2018-01-13T17:33:00.211Z,5.40
2018-01-13T17:35:28.466Z,5.30
2018-01-13T17:37:59.579Z,5.30
2018-01-13T17:40:28.648Z,5.30
2018-01-13T17:42:58.878Z,5.30
2018-01-13T17:45:27.217Z,5.30
2018-01-13T17:47:56.526Z,5.30
2018-01-13T17:50:24.810Z,5.30
2018-01-13T17:52:52.352Z,5.30
2018-01-13T17:55:20.642Z,5.30
2018-01-13T17:58:02.658Z,5.20
2018-01-13T18:00:30.942Z,5.20
2018-01-13T18:03:02.620Z,5.20
2018-01-13T18:05:44.487Z,5.20
2018-01-13T18:08:12.781Z,5.10
2018-01-13T18:10:46.957Z,5.00
2018-01-13T18:13:15.240Z,4.90
2018-01-13T18:15:44.504Z,4.90
2018-01-13T18:18:12.787Z,4.90
2018-01-13T18:20:46.634Z,4.90
2018-01-13T18:23:14.918Z,4.90
2018-01-13T18:25:43.175Z,4.90
2018-01-13T18:28:11.474Z,4.90
2018-01-13T18:30:39.737Z,5.00
2018-01-13T18:33:08.002Z,5.00
2018-01-13T18:35:36.332Z,5.00
2018-01-13T18:38:04.632Z,5.00
2018-01-13T18:40:32.965Z,5.00
2018-01-13T18:43:01.274Z,5.00
2018-01-13T18:45:30.478Z,5.00
2018-01-13T18:47:59.532Z,5.00
2018-01-13T18:50:28.552Z,5.00
2018-01-13T18:52:56.853Z,5.00
2018-01-13T18:55:25.193Z,5.00
2018-01-13T18:57:53.458Z,4.90
2018-01-13T19:00:21.753Z,4.90
2018-01-13T19:02:50.062Z,4.90
2018-01-13T19:05:18.410Z,4.90
2018-01-13T19:07:46.717Z,4.90
2018-01-13T19:10:14.248Z,4.90
2018-01-13T19:12:42.626Z,5.00
2018-01-13T19:15:10.891Z,5.00
2018-01-13T19:17:39.162Z,5.00
2018-01-13T19:20:06.687Z,5.00
2018-01-13T19:22:34.994Z,4.90
2018-01-13T19:25:03.295Z,5.00
2018-01-13T19:27:31.624Z,5.10
2018-01-13T19:30:00.122Z,5.10
2018-01-13T19:32:29.114Z,5.20
2018-01-13T19:34:58.017Z,5.20
2018-01-13T19:37:26.329Z,5.20
2018-01-13T19:39:54.615Z,5.20
2018-01-13T19:42:22.912Z,5.10
2018-01-13T19:44:51.241Z,5.10
2018-01-13T19:47:19.535Z,5.20
2018-01-13T19:49:47.845Z,5.20
2018-01-13T19:52:16.099Z,5.20
2018-01-13T19:54:43.681Z,5.20
2018-01-13T19:57:11.986Z,5.20
2018-01-13T19:59:42.277Z,5.20
2018-01-13T20:02:10.534Z,5.20
2018-01-13T20:04:53.406Z,5.20
2018-01-13T20:07:21.697Z,5.30
2018-01-13T20:09:53.957Z,5.30
2018-01-13T20:12:22.250Z,5.30
2018-01-13T20:14:50.590Z,5.30
2018-01-13T20:17:18.971Z,5.40
2018-01-13T20:19:47.273Z,5.40
2018-01-13T20:22:15.548Z,5.40
2018-01-13T20:24:43.848Z,5.50
2018-01-13T20:27:18.025Z,5.50
2018-01-13T20:29:46.370Z,5.50
2018-01-13T20:32:15.593Z,5.50
2018-01-13T20:34:43.931Z,5.50
2018-01-13T20:37:35.579Z,5.50
2018-01-13T20:40:03.887Z,5.50
2018-01-13T20:42:37.749Z,5.50
2018-01-13T20:45:06.086Z,5.50
2018-01-13T20:47:35.310Z,5.60
2018-01-13T20:50:03.647Z,5.50
2018-01-13T20:52:32.001Z,5.50
2018-01-13T20:55:00.313Z,5.50
2018-01-13T20:57:29.038Z,5.40
2018-01-13T21:00:04.467Z,5.50
2018-01-13T21:02:32.754Z,5.40
2018-01-13T21:05:01.092Z,5.50
2018-01-13T21:07:29.974Z,5.40
2018-01-13T21:09:59.181Z,5.60
2018-01-13T21:12:28.134Z,5.60
2018-01-13T21:14:56.411Z,5.60
2018-01-13T21:17:24.757Z,5.50
2018-01-13T21:19:53.067Z,5.50
2018-01-13T21:22:21.408Z,5.50
2018-01-13T21:24:49.716Z,5.50
2018-01-13T21:27:18.052Z,5.50
2018-01-13T21:29:46.370Z,5.50
2018-01-13T21:32:14.700Z,5.50
2018-01-13T21:34:42.957Z,5.50
2018-01-13T21:37:11.293Z,5.50
2018-01-13T21:39:39.630Z,5.60
2018-01-13T21:42:07.937Z,5.50
2018-01-13T21:44:46.088Z,5.50
2018-01-13T21:47:14.346Z,5.50
2018-01-13T21:49:42.694Z,5.40
2018-01-13T21:52:10.988Z,5.40
2018-01-13T21:54:39.305Z,5.50
2018-01-13T21:57:07.625Z,5.50
2018-01-13T21:59:35.961Z,5.50
2018-01-13T22:02:14.280Z,5.40
2018-01-13T22:04:42.617Z,5.50
2018-01-13T22:07:10.931Z,5.40
2018-01-13T22:09:39.266Z,5.40
2018-01-13T22:12:07.534Z,5.40
2018-01-13T22:14:35.857Z,5.50
2018-01-13T22:17:23.417Z,5.50
2018-01-13T22:19:51.740Z,5.40
2018-01-13T22:22:30.209Z,5.40
2018-01-13T22:24:58.859Z,5.50
2018-01-13T22:27:34.188Z,5.40
2018-01-13T22:30:02.518Z,5.50
2018-01-13T22:32:30.864Z,5.40
2018-01-13T22:34:59.717Z,5.40
2018-01-13T22:37:28.668Z,5.40
2018-01-13T22:39:56.996Z,5.40
2018-01-13T22:42:25.302Z,5.40
2018-01-13T22:44:53.648Z,5.40
2018-01-13T22:47:21.953Z,5.50
2018-01-13T22:50:10.592Z,5.60
2018-01-13T22:52:38.909Z,5.50
2018-01-13T22:55:07.216Z,5.40
2018-01-13T22:57:35.547Z,5.40
2018-01-13T23:00:03.887Z,5.50
2018-01-13T23:02:32.147Z,5.40
2018-01-13T23:05:00.430Z,5.40
2018-01-13T23:07:29.648Z,5.50
2018-01-13T23:09:58.713Z,5.50
2018-01-13T23:12:28.712Z,5.50
2018-01-13T23:14:56.966Z,5.50
2018-01-13T23:17:25.260Z,5.50
2018-01-13T23:19:53.601Z,5.50
2018-01-13T23:22:21.899Z,5.50
2018-01-13T23:24:50.154Z,5.60
2018-01-13T23:27:22.365Z,5.60
2018-01-13T23:29:50.622Z,5.60
2018-01-13T23:32:18.952Z,5.60
2018-01-13T23:34:47.210Z,5.60
2018-01-13T23:37:15.638Z,5.60
2018-01-13T23:39:43.899Z,5.60
2018-01-13T23:42:12.193Z,5.60
2018-01-13T23:44:40.516Z,5.60
2018-01-13T23:47:08.842Z,5.50
2018-01-13T23:49:37.136Z,5.50
2018-01-13T23:52:05.418Z,5.40
2018-01-13T23:54:33.756Z,5.40
2018-01-13T23:57:02.050Z,5.40
2018-01-13T23:59:30.303Z,5.40
